createdAt,value
2019-01-27T00:01:02.804Z,49.06
2019-01-27T00:03:29.427Z,49.27
2019-01-27T00:05:56.138Z,49.47
2019-01-27T00:08:22.871Z,49.33
2019-01-27T00:10:49.493Z,49.34
2019-01-27T00:13:17.177Z,49.44
2019-01-27T00:15:44.104Z,49.27
2019-01-27T00:18:12.314Z,49.12
2019-01-27T00:20:39.146Z,48.73
2019-01-27T00:23:06.101Z,48.94
2019-01-27T00:25:33.041Z,49.02
2019-01-27T00:27:59.945Z,49.11
2019-01-27T00:30:26.606Z,49.18
2019-01-27T00:32:53.255Z,48.90
2019-01-27T00:35:20.542Z,48.87
2019-01-27T00:37:47.303Z,48.29
2019-01-27T00:40:14.269Z,48.84
2019-01-27T00:42:42.628Z,48.68
2019-01-27T00:45:09.375Z,48.68
2019-01-27T00:47:36.246Z,48.88
2019-01-27T00:50:02.914Z,49.24
2019-01-27T00:52:29.548Z,49.72
2019-01-27T00:54:56.440Z,50.02
2019-01-27T00:57:23.083Z,50.20
2019-01-27T00:59:49.717Z,50.33
2019-01-27T01:02:16.637Z,50.44
2019-01-27T01:04:43.710Z,50.50
2019-01-27T01:07:11.274Z,50.42
2019-01-27T01:09:39.100Z,50.67
2019-01-27T01:12:08.352Z,50.42
2019-01-27T01:14:36.365Z,50.20
2019-01-27T01:17:09.611Z,50.02
2019-01-27T01:19:38.269Z,50.00
2019-01-27T01:22:05.914Z,50.06
2019-01-27T01:24:33.732Z,50.03
2019-01-27T01:27:01.240Z,50.41
2019-01-27T01:29:30.123Z,51.04
2019-01-27T01:32:01.644Z,52.02
2019-01-27T01:34:33.241Z,52.23
2019-01-27T01:37:02.042Z,51.97
2019-01-27T01:39:31.816Z,51.00
2019-01-27T01:41:59.738Z,51.37
2019-01-27T01:44:27.625Z,51.36
2019-01-27T01:46:58.724Z,50.84
2019-01-27T01:49:31.721Z,50.84
2019-01-27T01:51:59.633Z,51.33
2019-01-27T01:54:29.356Z,51.35
2019-01-27T01:56:57.626Z,51.53
2019-01-27T01:59:28.502Z,51.72
2019-01-27T02:01:56.508Z,51.32
2019-01-27T02:04:25.300Z,51.54
2019-01-27T02:06:54.932Z,52.68
2019-01-27T02:09:26.048Z,52.79
2019-01-27T02:11:59.272Z,52.44
2019-01-27T02:14:30.362Z,52.06
2019-01-27T02:16:58.327Z,52.20
2019-01-27T02:19:26.254Z,52.53
2019-01-27T02:21:55.924Z,52.81
2019-01-27T02:24:26.059Z,52.76
2019-01-27T02:26:53.034Z,52.86
2019-01-27T02:29:20.062Z,53.37
2019-01-27T02:31:48.419Z,53.46
2019-01-27T02:34:19.183Z,54.04
2019-01-27T02:36:45.883Z,53.66
2019-01-27T02:39:13.320Z,53.23
2019-01-27T02:41:40.041Z,53.10
2019-01-27T02:44:06.879Z,53.00
2019-01-27T02:46:33.587Z,52.96
2019-01-27T02:49:00.337Z,52.73
2019-01-27T02:51:27.038Z,52.73
2019-01-27T02:53:53.963Z,52.53
2019-01-27T02:56:20.752Z,52.10
2019-01-27T02:58:47.893Z,52.00
2019-01-27T03:01:15.974Z,52.49
2019-01-27T03:03:42.759Z,52.60
2019-01-27T03:06:10.590Z,54.01
2019-01-27T03:08:38.123Z,55.14
2019-01-27T03:11:05.130Z,55.66
2019-01-27T03:13:33.768Z,55.95
2019-01-27T03:16:01.474Z,56.54
2019-01-27T03:18:28.433Z,56.62
2019-01-27T03:20:55.921Z,56.38
2019-01-27T03:23:23.592Z,55.70
2019-01-27T03:25:51.191Z,55.65
2019-01-27T03:28:19.901Z,55.75
2019-01-27T03:30:47.990Z,55.34
2019-01-27T03:33:15.832Z,54.66
2019-01-27T03:35:43.300Z,53.93
2019-01-27T03:38:10.260Z,53.40
2019-01-27T03:40:37.273Z,54.06
2019-01-27T03:43:04.000Z,54.47
2019-01-27T03:45:31.004Z,54.56
2019-01-27T03:47:58.271Z,54.83
2019-01-27T03:50:25.790Z,55.21
2019-01-27T03:52:54.174Z,55.60
2019-01-27T03:55:22.275Z,55.51
2019-01-27T03:57:49.908Z,55.21
2019-01-27T04:00:17.561Z,54.39
2019-01-27T04:02:45.620Z,54.28
2019-01-27T04:05:13.107Z,54.00
2019-01-27T04:07:40.022Z,53.99
2019-01-27T04:10:07.075Z,53.96
2019-01-27T04:12:33.809Z,53.82
2019-01-27T04:15:00.627Z,53.36
2019-01-27T04:17:27.647Z,53.43
2019-01-27T04:19:54.563Z,53.28
2019-01-27T04:22:22.311Z,53.42
2019-01-27T04:24:49.105Z,53.52
2019-01-27T04:27:15.951Z,53.54
2019-01-27T04:29:42.586Z,53.57
2019-01-27T04:32:09.494Z,53.21
2019-01-27T04:34:36.548Z,52.82
2019-01-27T04:37:03.833Z,53.06
2019-01-27T04:42:17.584Z,52.83
2019-01-27T04:44:49.781Z,53.10
2019-01-27T04:47:19.279Z,53.10
2019-01-27T04:49:46.313Z,53.38
2019-01-27T04:52:15.710Z,53.24
2019-01-27T04:54:42.407Z,53.26
2019-01-27T04:57:09.786Z,53.61
2019-01-27T04:59:39.514Z,54.13
2019-01-27T05:02:06.311Z,54.27
2019-01-27T05:04:33.080Z,54.07
2019-01-27T05:06:59.902Z,53.74
2019-01-27T05:09:26.970Z,53.37
2019-01-27T05:11:53.925Z,53.49
2019-01-27T05:14:20.565Z,53.34
2019-01-27T05:16:47.252Z,53.29
2019-01-27T05:19:14.080Z,53.17
2019-01-27T05:21:41.001Z,53.11
2019-01-27T05:24:07.593Z,52.94
2019-01-27T05:26:34.209Z,52.37
2019-01-27T05:29:01.104Z,52.46
2019-01-27T05:31:27.727Z,52.58
2019-01-27T05:33:54.398Z,52.34
2019-01-27T05:36:21.336Z,51.78
2019-01-27T05:38:48.156Z,52.16
2019-01-27T05:41:16.622Z,52.47
2019-01-27T05:43:43.446Z,52.01
2019-01-27T05:46:10.373Z,52.41
2019-01-27T05:48:37.282Z,52.74
2019-01-27T05:51:03.929Z,52.91
2019-01-27T05:53:30.547Z,53.32
2019-01-27T05:55:57.576Z,53.56
2019-01-27T05:58:24.619Z,53.27
2019-01-27T06:00:51.588Z,53.17
2019-01-27T06:03:18.513Z,53.21
2019-01-27T06:05:46.966Z,53.15
2019-01-27T06:08:13.646Z,53.48
2019-01-27T06:10:40.628Z,54.11
2019-01-27T06:13:07.541Z,54.50
2019-01-27T06:15:34.153Z,54.36
2019-01-27T06:18:00.750Z,54.12
2019-01-27T06:20:27.636Z,53.94
2019-01-27T06:22:54.238Z,53.91
2019-01-27T06:25:20.885Z,53.66
2019-01-27T06:27:47.776Z,53.40
2019-01-27T06:30:14.399Z,53.52
2019-01-27T06:32:41.047Z,53.54
2019-01-27T06:35:07.952Z,53.42
2019-01-27T06:37:38.438Z,53.11
2019-01-27T06:40:09.186Z,52.97
2019-01-27T06:42:36.271Z,52.74
2019-01-27T06:45:04.441Z,52.68
2019-01-27T06:47:31.359Z,52.65
2019-01-27T06:49:58.841Z,52.76
2019-01-27T06:52:27.382Z,52.87
2019-01-27T06:54:54.175Z,52.81
2019-01-27T06:57:21.134Z,52.74
2019-01-27T06:59:47.785Z,52.63
2019-01-27T07:02:14.436Z,52.72
2019-01-27T07:04:41.208Z,52.84
2019-01-27T07:07:07.824Z,52.75
2019-01-27T07:09:34.447Z,52.70
2019-01-27T07:12:01.870Z,53.06
2019-01-27T07:14:28.600Z,53.38
2019-01-27T07:16:55.414Z,53.83
2019-01-27T07:19:22.265Z,53.56
2019-01-27T07:21:48.951Z,53.35
2019-01-27T07:24:15.656Z,53.08
2019-01-27T07:26:42.826Z,52.70
2019-01-27T07:29:09.637Z,52.30
2019-01-27T07:31:37.873Z,51.93
2019-01-27T07:34:04.642Z,51.79
2019-01-27T07:36:31.295Z,51.79
2019-01-27T07:38:57.931Z,51.95
2019-01-27T07:41:24.814Z,52.11
2019-01-27T07:43:51.820Z,52.17
2019-01-27T07:46:18.743Z,52.09
2019-01-27T07:48:46.620Z,51.90
2019-01-27T07:51:14.489Z,51.71
2019-01-27T07:53:44.067Z,51.55
2019-01-27T07:56:14.495Z,51.15
2019-01-27T07:58:43.634Z,50.22
2019-01-27T08:01:11.280Z,49.81
2019-01-27T08:03:38.662Z,49.96
2019-01-27T08:06:05.236Z,50.33
2019-01-27T08:08:32.240Z,50.25
2019-01-27T08:10:59.159Z,50.15
2019-01-27T08:13:26.114Z,50.00
2019-01-27T08:15:52.748Z,49.72
2019-01-27T08:18:19.415Z,49.50
2019-01-27T08:20:46.253Z,48.79
2019-01-27T08:23:13.796Z,49.10
2019-01-27T08:25:40.480Z,49.17
2019-01-27T08:28:08.739Z,49.04
2019-01-27T08:30:35.420Z,48.60
2019-01-27T08:33:08.119Z,48.81
2019-01-27T08:35:34.698Z,48.74
2019-01-27T08:38:01.457Z,47.86
2019-01-27T08:40:28.403Z,48.37
2019-01-27T08:42:55.087Z,48.40
2019-01-27T08:45:22.077Z,48.85
2019-01-27T08:47:48.710Z,48.13
2019-01-27T08:50:15.574Z,48.02
2019-01-27T08:52:42.207Z,48.28
2019-01-27T08:55:09.077Z,48.68
2019-01-27T08:57:35.705Z,48.46
2019-01-27T09:00:02.628Z,48.31
2019-01-27T09:02:29.607Z,48.51
2019-01-27T09:04:56.330Z,48.21
2019-01-27T09:07:22.988Z,48.58
2019-01-27T09:09:49.714Z,48.26
2019-01-27T09:12:16.301Z,47.81
2019-01-27T09:14:42.942Z,47.80
2019-01-27T09:17:09.835Z,47.60
2019-01-27T09:19:36.611Z,47.12
2019-01-27T09:22:03.250Z,47.00
2019-01-27T09:24:30.253Z,46.66
2019-01-27T09:26:56.909Z,46.33
2019-01-27T09:29:23.541Z,46.30
2019-01-27T09:31:50.212Z,46.27
2019-01-27T09:34:16.843Z,46.37
2019-01-27T09:36:43.823Z,46.46
2019-01-27T09:39:10.737Z,46.44
2019-01-27T09:41:37.406Z,46.24
2019-01-27T09:44:04.024Z,46.25
2019-01-27T09:46:31.197Z,46.12
2019-01-27T09:48:58.008Z,46.36
2019-01-27T09:51:24.943Z,45.85
2019-01-27T09:53:51.652Z,45.77
2019-01-27T09:56:18.393Z,44.71
2019-01-27T09:58:45.059Z,44.78
2019-01-27T10:01:13.539Z,44.25
2019-01-27T10:03:40.156Z,43.51
2019-01-27T10:06:07.096Z,43.09
2019-01-27T10:08:33.724Z,43.06
2019-01-27T10:11:00.480Z,43.46
2019-01-27T10:13:27.408Z,42.83
2019-01-27T10:15:54.343Z,42.26
2019-01-27T10:18:20.991Z,42.62
2019-01-27T10:20:47.587Z,42.33
2019-01-27T10:23:14.509Z,42.94
2019-01-27T10:25:41.468Z,42.94
2019-01-27T10:28:08.128Z,41.66
2019-01-27T10:30:34.887Z,41.62
2019-01-27T10:33:01.707Z,41.92
2019-01-27T10:35:28.644Z,42.22
2019-01-27T10:37:56.209Z,41.58
2019-01-27T10:40:25.306Z,41.54
2019-01-27T10:42:52.000Z,41.95
2019-01-27T10:45:21.608Z,42.30
2019-01-27T10:47:48.949Z,42.23
2019-01-27T10:50:16.216Z,42.10
2019-01-27T10:52:45.855Z,42.43
2019-01-27T10:55:17.823Z,42.73
2019-01-27T10:57:48.354Z,41.93
2019-01-27T11:00:16.156Z,42.38
2019-01-27T11:02:46.743Z,42.39
2019-01-27T11:05:14.442Z,41.47
2019-01-27T11:07:46.264Z,41.93
2019-01-27T11:10:14.174Z,40.87
2019-01-27T11:12:43.788Z,40.97
2019-01-27T11:15:10.778Z,40.63
2019-01-27T11:17:40.742Z,40.76
2019-01-27T11:20:11.443Z,41.43
2019-01-27T11:22:42.642Z,40.90
2019-01-27T11:25:19.252Z,40.88
2019-01-27T11:27:42.992Z,41.51
2019-01-27T11:30:13.318Z,41.29
2019-01-27T11:35:29.750Z,41.01
2019-01-27T11:37:57.823Z,41.20
2019-01-27T11:40:25.945Z,41.95
2019-01-27T11:42:53.100Z,41.51
2019-01-27T11:45:24.217Z,40.98
2019-01-27T11:47:51.933Z,41.81
2019-01-27T11:50:24.420Z,41.97
2019-01-27T11:52:54.924Z,41.61
2019-01-27T11:55:24.357Z,41.70
2019-01-27T11:58:05.919Z,41.31
2019-01-27T12:00:31.109Z,40.79
2019-01-27T12:02:58.938Z,41.72
2019-01-27T12:05:26.260Z,42.17
2019-01-27T12:07:54.359Z,41.91
2019-01-27T12:10:22.120Z,41.97
2019-01-27T12:12:51.502Z,42.40
2019-01-27T12:15:19.305Z,42.47
2019-01-27T12:17:51.983Z,41.28
2019-01-27T12:20:19.733Z,41.52
2019-01-27T12:22:47.309Z,42.14
2019-01-27T12:25:15.402Z,41.68
2019-01-27T12:27:43.305Z,41.62
2019-01-27T12:30:16.303Z,42.24
2019-01-27T12:32:45.702Z,41.89
2019-01-27T12:35:21.228Z,40.74
2019-01-27T12:37:48.117Z,41.10
2019-01-27T12:40:14.698Z,41.61
2019-01-27T12:42:43.567Z,40.66
2019-01-27T12:45:12.341Z,40.50
2019-01-27T12:47:40.985Z,41.42
2019-01-27T12:50:08.171Z,40.10
2019-01-27T12:52:34.983Z,40.68
2019-01-27T12:55:03.378Z,40.46
2019-01-27T12:57:31.857Z,40.33
2019-01-27T13:00:01.403Z,40.81
2019-01-27T13:02:28.020Z,40.10
2019-01-27T13:04:57.043Z,40.38
2019-01-27T13:07:23.804Z,40.39
2019-01-27T13:09:53.902Z,40.11
2019-01-27T13:12:22.603Z,40.00
2019-01-27T13:14:49.274Z,39.89
2019-01-27T13:17:17.295Z,39.44
2019-01-27T13:19:44.354Z,39.77
2019-01-27T13:22:12.376Z,39.82
2019-01-27T13:24:41.658Z,39.36
2019-01-27T13:27:08.276Z,39.88
2019-01-27T13:29:38.894Z,38.97
2019-01-27T13:32:06.514Z,39.27
2019-01-27T13:34:34.221Z,39.49
2019-01-27T13:37:03.075Z,39.41
2019-01-27T13:39:30.700Z,39.27
2019-01-27T13:41:57.630Z,39.57
2019-01-27T13:44:24.771Z,39.79
2019-01-27T13:46:52.769Z,39.42
2019-01-27T13:49:26.249Z,39.04
2019-01-27T13:51:53.119Z,39.78
2019-01-27T13:54:19.824Z,39.89
2019-01-27T13:56:46.636Z,38.93
2019-01-27T13:59:13.618Z,39.10
2019-01-27T14:01:40.909Z,39.21
2019-01-27T14:04:07.639Z,39.83
2019-01-27T14:06:34.622Z,39.63
2019-01-27T14:09:01.316Z,39.30
2019-01-27T14:11:27.935Z,39.22
2019-01-27T14:13:54.850Z,39.63
2019-01-27T14:16:21.898Z,39.12
2019-01-27T14:18:49.142Z,38.88
2019-01-27T14:21:16.556Z,39.58
2019-01-27T14:23:44.092Z,39.34
2019-01-27T14:26:10.989Z,39.35
2019-01-27T14:28:37.622Z,40.28
2019-01-27T14:31:04.367Z,39.79
2019-01-27T14:33:31.221Z,39.75
2019-01-27T14:35:58.150Z,39.70
2019-01-27T14:38:25.178Z,39.23
2019-01-27T14:40:52.133Z,40.21
2019-01-27T14:43:18.776Z,39.91
2019-01-27T14:45:45.392Z,39.94
2019-01-27T14:48:12.435Z,40.44
2019-01-27T14:50:39.422Z,40.25
2019-01-27T14:53:07.751Z,40.52
2019-01-27T14:55:34.383Z,40.55
2019-01-27T14:58:01.356Z,40.48
2019-01-27T15:00:28.312Z,41.22
2019-01-27T15:02:55.008Z,41.75
2019-01-27T15:05:21.773Z,41.84
2019-01-27T15:07:48.720Z,41.29
2019-01-27T15:10:15.565Z,41.72
2019-01-27T15:12:42.494Z,42.03
2019-01-27T15:15:09.452Z,42.09
2019-01-27T15:17:37.325Z,41.73
2019-01-27T15:20:04.046Z,42.14
2019-01-27T15:22:30.639Z,41.90
2019-01-27T15:24:57.723Z,42.24
2019-01-27T15:27:24.677Z,42.42
2019-01-27T15:29:51.347Z,42.69
2019-01-27T15:32:18.436Z,42.65
2019-01-27T15:34:45.054Z,42.12
2019-01-27T15:37:12.068Z,42.64
2019-01-27T15:39:38.849Z,43.07
2019-01-27T15:42:05.992Z,43.41
2019-01-27T15:44:32.868Z,43.39
2019-01-27T15:47:00.104Z,43.40
2019-01-27T15:49:26.847Z,43.77
2019-01-27T15:51:53.558Z,43.68
2019-01-27T15:54:20.226Z,44.46
2019-01-27T15:56:47.193Z,44.67
2019-01-27T15:59:14.344Z,44.63
2019-01-27T16:01:41.317Z,44.77
2019-01-27T16:04:08.498Z,44.46
2019-01-27T16:06:35.587Z,44.37
2019-01-27T16:09:02.265Z,44.97
2019-01-27T16:11:29.187Z,45.39
2019-01-27T16:13:55.859Z,45.36
2019-01-27T16:16:22.785Z,45.35
2019-01-27T16:18:49.762Z,45.27
2019-01-27T16:21:16.848Z,45.59
2019-01-27T16:23:43.553Z,45.67
2019-01-27T16:26:10.502Z,46.19
2019-01-27T16:28:38.906Z,46.20
2019-01-27T16:31:05.651Z,46.20
2019-01-27T16:33:32.634Z,46.38
2019-01-27T16:35:59.582Z,46.35
2019-01-27T16:38:26.334Z,46.31
2019-01-27T16:40:52.972Z,46.27
2019-01-27T16:43:20.263Z,46.55
2019-01-27T16:45:46.974Z,46.89
2019-01-27T16:48:14.041Z,47.00
2019-01-27T16:50:41.002Z,46.53
2019-01-27T16:53:09.320Z,47.00
2019-01-27T16:55:36.064Z,46.72
2019-01-27T16:58:02.986Z,47.09
2019-01-27T17:00:29.654Z,47.39
2019-01-27T17:02:56.909Z,47.52
2019-01-27T17:05:23.672Z,47.38
2019-01-27T17:07:50.416Z,47.32
2019-01-27T17:10:17.149Z,47.49
2019-01-27T17:12:44.623Z,47.65
2019-01-27T17:15:11.634Z,47.52
2019-01-27T17:17:39.606Z,47.68
2019-01-27T17:20:06.276Z,48.20
2019-01-27T17:22:33.293Z,48.40
2019-01-27T17:25:00.534Z,48.39
2019-01-27T17:27:27.341Z,48.56
2019-01-27T17:29:54.385Z,48.79
2019-01-27T17:32:21.446Z,49.19
2019-01-27T17:34:49.005Z,49.13
2019-01-27T17:37:15.596Z,48.88
2019-01-27T17:39:42.537Z,48.65
2019-01-27T17:42:09.805Z,48.61
2019-01-27T17:44:36.463Z,48.60
2019-01-27T17:47:03.103Z,48.04
2019-01-27T17:49:29.747Z,48.31
2019-01-27T17:51:56.913Z,48.36
2019-01-27T17:54:24.557Z,48.37
2019-01-27T17:56:51.263Z,48.99
2019-01-27T17:59:18.408Z,49.29
2019-01-27T18:01:45.009Z,49.38
2019-01-27T18:04:11.954Z,49.48
2019-01-27T18:06:38.957Z,49.77
2019-01-27T18:09:05.764Z,50.29
2019-01-27T18:11:33.370Z,50.24
2019-01-27T18:14:00.344Z,50.03
2019-01-27T18:16:27.169Z,50.04
2019-01-27T18:18:54.096Z,50.37
2019-01-27T18:21:21.006Z,50.43
2019-01-27T18:23:47.683Z,50.61
2019-01-27T18:26:14.431Z,50.47
2019-01-27T18:28:41.891Z,50.88
2019-01-27T18:31:08.663Z,50.63
2019-01-27T18:33:35.433Z,50.55
2019-01-27T18:36:04.068Z,50.37
2019-01-27T18:38:30.782Z,50.28
2019-01-27T18:40:57.555Z,50.49
2019-01-27T18:43:24.191Z,50.69
2019-01-27T18:45:50.898Z,50.87
2019-01-27T18:48:18.084Z,50.83
2019-01-27T18:50:44.715Z,51.03
2019-01-27T18:53:13.220Z,51.14
2019-01-27T18:55:40.249Z,51.19
2019-01-27T18:58:07.069Z,50.75
2019-01-27T19:00:34.144Z,50.67
2019-01-27T19:03:00.843Z,50.50
2019-01-27T19:05:27.878Z,50.36
2019-01-27T19:07:54.892Z,50.42
2019-01-27T19:10:21.848Z,50.45
2019-01-27T19:12:48.487Z,50.30
2019-01-27T19:15:15.077Z,50.03
2019-01-27T19:17:41.926Z,49.94
2019-01-27T19:20:08.720Z,50.06
2019-01-27T19:22:35.631Z,50.32
2019-01-27T19:25:02.215Z,51.20
2019-01-27T19:27:29.109Z,51.60
2019-01-27T19:29:55.962Z,52.06
2019-01-27T19:32:22.637Z,52.09
2019-01-27T19:34:49.257Z,52.07
2019-01-27T19:37:16.155Z,51.72
2019-01-27T19:39:42.917Z,51.35
2019-01-27T19:42:09.613Z,51.43
2019-01-27T19:44:36.835Z,51.59
2019-01-27T19:47:04.989Z,51.61
2019-01-27T19:49:31.717Z,51.19
2019-01-27T19:51:58.386Z,50.94
2019-01-27T19:54:25.337Z,50.89
2019-01-27T19:56:52.012Z,50.89
2019-01-27T19:59:18.754Z,51.31
2019-01-27T20:01:45.722Z,51.96
2019-01-27T20:04:12.509Z,52.30
2019-01-27T20:06:39.465Z,52.72
2019-01-27T20:09:06.275Z,52.70
2019-01-27T20:11:34.179Z,52.96
2019-01-27T20:14:00.803Z,52.75
2019-01-27T20:16:27.832Z,52.38
2019-01-27T20:18:54.682Z,52.07
2019-01-27T20:21:21.557Z,52.39
2019-01-27T20:23:48.188Z,51.92
2019-01-27T20:26:15.173Z,51.80
2019-01-27T20:28:42.155Z,51.38
2019-01-27T20:31:08.851Z,51.10
2019-01-27T20:33:35.956Z,50.92
2019-01-27T20:36:02.883Z,50.67
2019-01-27T20:38:34.142Z,50.67
2019-01-27T20:41:02.942Z,50.58
2019-01-27T20:43:29.920Z,50.73
2019-01-27T20:46:05.183Z,50.97
2019-01-27T20:51:19.372Z,50.67
2019-01-27T20:53:49.135Z,51.16
2019-01-27T20:56:18.219Z,51.68
2019-01-27T20:58:46.187Z,51.99
2019-01-27T21:01:13.235Z,51.88
2019-01-27T21:03:41.644Z,51.52
2019-01-27T21:06:10.833Z,52.05
2019-01-27T21:08:44.922Z,52.06
2019-01-27T21:11:13.185Z,52.13
2019-01-27T21:13:45.007Z,52.03
2019-01-27T21:16:13.906Z,51.65
2019-01-27T21:18:44.458Z,52.08
2019-01-27T21:21:15.757Z,52.90
2019-01-27T21:23:45.405Z,53.16
2019-01-27T21:26:26.951Z,53.04
2019-01-27T21:28:58.050Z,52.78
2019-01-27T21:31:27.015Z,52.65
2019-01-27T21:33:56.035Z,51.91
2019-01-27T21:36:31.555Z,52.06
2019-01-27T21:38:56.794Z,51.62
2019-01-27T21:41:25.513Z,52.02
2019-01-27T21:43:53.820Z,52.24
2019-01-27T21:46:23.446Z,52.91
2019-01-27T21:48:50.253Z,53.92
2019-01-27T21:51:20.889Z,54.34
2019-01-27T21:53:48.496Z,54.30
2019-01-27T21:56:19.875Z,53.73
2019-01-27T21:58:47.072Z,53.72
2019-01-27T22:01:17.927Z,53.02
2019-01-27T22:03:45.007Z,52.39
2019-01-27T22:06:16.279Z,52.57
2019-01-27T22:08:46.277Z,52.53
2019-01-27T22:11:14.280Z,52.46
2019-01-27T22:13:46.061Z,52.67
2019-01-27T22:16:15.157Z,52.65
2019-01-27T22:18:42.618Z,52.56
2019-01-27T22:21:09.241Z,52.91
2019-01-27T22:23:36.907Z,52.85
2019-01-27T22:26:08.113Z,53.36
2019-01-27T22:31:21.932Z,52.63
2019-01-27T22:33:53.592Z,52.64
2019-01-27T22:36:24.695Z,52.45
2019-01-27T22:38:54.309Z,52.49
2019-01-27T22:41:21.193Z,52.45
2019-01-27T22:43:49.329Z,51.97
2019-01-27T22:46:16.201Z,52.21
2019-01-27T22:48:47.240Z,52.32
2019-01-27T22:51:15.123Z,52.47
2019-01-27T22:53:44.943Z,53.03
2019-01-27T22:56:16.705Z,53.42
2019-01-27T22:58:46.556Z,53.67
2019-01-27T23:01:14.208Z,54.16
2019-01-27T23:03:43.586Z,54.40
2019-01-27T23:06:11.460Z,55.18
2019-01-27T23:08:40.185Z,55.82
2019-01-27T23:11:11.055Z,56.83
2019-01-27T23:13:38.018Z,57.05
2019-01-27T23:16:06.867Z,56.38
2019-01-27T23:18:37.640Z,55.77
2019-01-27T23:21:08.576Z,55.47
2019-01-27T23:23:37.411Z,55.52
2019-01-27T23:26:06.275Z,55.41
2019-01-27T23:28:32.985Z,55.18
2019-01-27T23:31:03.061Z,56.06
2019-01-27T23:33:32.793Z,57.07
2019-01-27T23:36:03.371Z,57.75
2019-01-27T23:38:33.222Z,58.35
2019-01-27T23:41:04.702Z,58.58
2019-01-27T23:43:32.301Z,58.30
2019-01-27T23:46:02.502Z,58.35
2019-01-27T23:48:33.564Z,59.35
2019-01-27T23:51:00.752Z,59.48
2019-01-27T23:53:34.224Z,59.14
2019-01-27T23:56:02.879Z,58.52
2019-01-27T23:58:35.081Z,58.22
